createdAt,value
2017-04-25T00:00:48.720Z,8.93
2017-04-25T00:02:03.237Z,8.96
2017-04-25T00:03:17.985Z,8.92
2017-04-25T00:04:32.660Z,8.87
2017-04-25T00:05:48.474Z,8.81
2017-04-25T00:07:02.954Z,8.71
2017-04-25T00:08:17.923Z,8.82
2017-04-25T00:09:33.069Z,8.68
2017-04-25T00:10:47.256Z,8.64
2017-04-25T00:12:02.603Z,8.71
2017-04-25T00:13:16.945Z,8.63
2017-04-25T00:14:32.919Z,8.6
2017-04-25T00:15:48.579Z,8.71
2017-04-25T00:17:03.098Z,8.75
2017-04-25T00:18:17.676Z,8.75
2017-04-25T00:19:32.108Z,8.57
2017-04-25T00:20:46.450Z,8.6
2017-04-25T00:22:02.054Z,8.54
2017-04-25T00:23:17.795Z,8.53
2017-04-25T00:24:33.277Z,8.5
2017-04-25T00:25:48.489Z,8.5
2017-04-25T00:27:03.405Z,8.39
2017-04-25T00:28:20.114Z,8.34
2017-04-25T00:29:34.722Z,8.32
2017-04-25T00:30:49.711Z,8.35
2017-04-25T00:32:04.741Z,8.32
2017-04-25T00:33:19.465Z,8.32
2017-04-25T00:34:34.252Z,8.26
2017-04-25T00:35:48.258Z,8.24
2017-04-25T00:37:02.656Z,8.23
2017-04-25T00:38:16.602Z,8.32
2017-04-25T00:39:31.716Z,8.34
2017-04-25T00:40:47.308Z,8.23
2017-04-25T00:42:03.399Z,8.21
2017-04-25T00:43:19.172Z,8.13
2017-04-25T00:44:33.611Z,8.09
2017-04-25T00:45:48.068Z,8.13
2017-04-25T00:47:02.562Z,8.05
2017-04-25T00:48:16.966Z,8.06
2017-04-25T00:49:32.533Z,8.02
2017-04-25T00:50:46.848Z,7.98
2017-04-25T00:52:02.046Z,7.83
2017-04-25T00:53:17.297Z,7.84
2017-04-25T00:54:31.516Z,7.75
2017-04-25T00:55:45.767Z,7.77
2017-04-25T00:56:59.898Z,7.81
2017-04-25T00:58:14.542Z,7.81
2017-04-25T00:59:28.607Z,7.85
2017-04-25T01:00:43.248Z,7.77
2017-04-25T01:01:57.686Z,7.81
2017-04-25T01:03:12.074Z,7.8
2017-04-25T01:04:28.661Z,7.78
2017-04-25T01:05:42.595Z,7.83
2017-04-25T01:06:56.777Z,7.75
2017-04-25T01:08:11.594Z,7.75
2017-04-25T01:09:35.607Z,7.81
2017-04-25T01:10:50.634Z,7.8
2017-04-25T01:13:06.259Z,7.69
2017-04-25T01:14:20.653Z,7.58
2017-04-25T01:15:35.275Z,7.61
2017-04-25T01:16:50.467Z,7.62
2017-04-25T01:18:04.380Z,7.59
2017-04-25T01:19:18.455Z,7.75
2017-04-25T01:20:32.421Z,7.72
2017-04-25T01:21:46.915Z,7.72
2017-04-25T01:23:01.535Z,7.69
2017-04-25T01:24:15.601Z,7.66
2017-04-25T01:25:29.520Z,7.58
2017-04-25T01:26:43.604Z,7.64
2017-04-25T01:27:58.246Z,7.58
2017-04-25T01:29:12.998Z,7.56
2017-04-25T01:30:27.674Z,7.58
2017-04-25T01:31:41.795Z,7.41
2017-04-25T01:32:55.767Z,7.44
2017-04-25T01:34:10.891Z,7.48
2017-04-25T01:35:25.270Z,7.44
2017-04-25T01:36:39.571Z,7.47
2017-04-25T01:37:53.533Z,7.5
2017-04-25T01:39:08.471Z,7.5
2017-04-25T01:40:22.726Z,7.53
2017-04-25T01:41:37.250Z,7.48
2017-04-25T01:42:51.588Z,7.5
2017-04-25T01:44:06.026Z,7.4
2017-04-25T01:45:20.273Z,7.4
2017-04-25T01:46:34.724Z,7.41
2017-04-25T01:47:49.135Z,7.33
2017-04-25T01:49:03.592Z,7.4
2017-04-25T01:50:17.963Z,7.41
2017-04-25T01:51:32.462Z,7.32
2017-04-25T01:52:46.814Z,7.39
2017-04-25T01:54:00.975Z,7.33
2017-04-25T01:55:14.863Z,7.28
2017-04-25T01:56:29.064Z,7.26
2017-04-25T01:57:43.649Z,7.14
2017-04-25T01:58:57.761Z,7.29
2017-04-25T02:00:12.168Z,7.21
2017-04-25T02:01:26.905Z,7.14
2017-04-25T02:02:41.570Z,7.01
2017-04-25T02:03:56.039Z,7.08
2017-04-25T02:05:10.320Z,7.03
2017-04-25T02:06:24.863Z,7.14
2017-04-25T02:07:38.770Z,7.01
2017-04-25T02:08:52.953Z,7.04
2017-04-25T02:10:07.202Z,7.01
2017-04-25T02:11:21.948Z,6.87
2017-04-25T02:12:36.342Z,6.95
2017-04-25T02:13:50.588Z,6.86
2017-04-25T02:15:04.868Z,6.86
2017-04-25T02:16:19.301Z,6.9
2017-04-25T02:17:33.210Z,6.83
2017-04-25T02:18:48.509Z,6.9
2017-04-25T02:20:03.092Z,6.85
2017-04-25T02:21:17.494Z,6.8
2017-04-25T02:22:32.092Z,6.93
2017-04-25T02:23:46.716Z,6.8
2017-04-25T02:25:00.962Z,6.82
2017-04-25T02:26:15.059Z,6.7
2017-04-25T02:27:28.956Z,6.77
2017-04-25T02:28:43.370Z,6.75
2017-04-25T02:29:58.042Z,6.67
2017-04-25T02:31:12.550Z,6.64
2017-04-25T02:32:27.380Z,6.56
2017-04-25T02:33:42.590Z,6.56
2017-04-25T02:34:56.868Z,6.43
2017-04-25T02:36:11.641Z,6.52
2017-04-25T02:37:26.063Z,6.57
2017-04-25T02:38:40.683Z,6.59
2017-04-25T02:39:55.300Z,6.67
2017-04-25T02:41:09.715Z,6.59
2017-04-25T02:42:23.997Z,6.57
2017-04-25T02:43:38.452Z,6.62
2017-04-25T02:44:52.407Z,6.59
2017-04-25T02:46:06.442Z,6.65
2017-04-25T02:47:21.012Z,6.59
2017-04-25T02:48:35.083Z,6.54
2017-04-25T02:49:49.020Z,6.68
2017-04-25T02:51:03.807Z,6.64
2017-04-25T02:52:18.375Z,6.64
2017-04-25T02:53:33.141Z,6.46
2017-04-25T02:54:47.166Z,6.53
2017-04-25T02:56:01.647Z,6.47
2017-04-25T02:57:16.034Z,6.56
2017-04-25T02:58:30.397Z,6.56
2017-04-25T02:59:45.150Z,6.57
2017-04-25T03:00:59.558Z,6.57
2017-04-25T03:02:13.949Z,6.62
2017-04-25T03:03:28.787Z,6.6
2017-04-25T03:04:43.284Z,6.56
2017-04-25T03:05:58.067Z,6.54
2017-04-25T03:07:12.916Z,6.56
2017-04-25T03:08:28.623Z,6.56
2017-04-25T03:09:43.973Z,6.57
2017-04-25T03:10:58.285Z,6.56
2017-04-25T03:12:12.270Z,6.62
2017-04-25T03:13:43.980Z,6.65
2017-04-25T03:14:58.013Z,6.68
2017-04-25T03:16:11.977Z,6.59
2017-04-25T03:17:26.897Z,6.54
2017-04-25T03:18:41.122Z,6.56
2017-04-25T03:19:55.260Z,6.59
2017-04-25T03:21:09.225Z,6.6
2017-04-25T03:22:23.352Z,6.47
2017-04-25T03:23:37.318Z,6.54
2017-04-25T03:24:52.006Z,6.44
2017-04-25T03:26:06.342Z,6.49
2017-04-25T03:27:21.081Z,6.56
2017-04-25T03:28:35.503Z,6.52
2017-04-25T03:29:49.616Z,6.59
2017-04-25T03:31:03.868Z,6.65
2017-04-25T03:32:18.067Z,6.57
2017-04-25T03:33:33.033Z,6.56
2017-04-25T03:34:47.084Z,6.6
2017-04-25T03:36:01.334Z,6.7
2017-04-25T03:37:15.591Z,6.8
2017-04-25T03:38:29.481Z,6.75
2017-04-25T03:39:43.894Z,6.75
2017-04-25T03:40:58.212Z,6.77
2017-04-25T03:42:12.374Z,6.77
2017-04-25T03:43:27.033Z,6.74
2017-04-25T03:44:41.807Z,6.78
2017-04-25T03:45:56.466Z,6.78
2017-04-25T03:47:10.693Z,6.93
2017-04-25T03:48:24.660Z,6.93
2017-04-25T03:49:39.325Z,7.03
2017-04-25T03:50:53.506Z,6.97
2017-04-25T03:52:08.246Z,7.01
2017-04-25T03:53:22.595Z,7.03
2017-04-25T03:54:36.749Z,7.13
2017-04-25T03:55:51.792Z,7.11
2017-04-25T03:57:06.359Z,7.14
2017-04-25T03:58:20.355Z,7.29
2017-04-25T03:59:34.456Z,7.28
2017-04-25T04:00:48.788Z,7.29
2017-04-25T04:02:03.816Z,7.31
2017-04-25T04:03:18.343Z,7.36
2017-04-25T04:04:32.880Z,7.37
2017-04-25T04:05:48.273Z,7.47
2017-04-25T04:07:02.406Z,7.5
2017-04-25T04:08:17.428Z,7.47
2017-04-25T04:09:32.829Z,7.51
2017-04-25T04:10:47.233Z,7.47
2017-04-25T04:12:02.948Z,7.46
2017-04-25T04:13:17.185Z,7.53
2017-04-25T04:14:31.402Z,7.43
2017-04-25T04:15:45.891Z,7.36
2017-04-25T04:17:00.552Z,7.31
2017-04-25T04:18:14.858Z,7.39
2017-04-25T04:19:29.336Z,7.39
2017-04-25T04:20:43.836Z,7.37
2017-04-25T04:21:58.839Z,7.4
2017-04-25T04:23:13.030Z,7.31
2017-04-25T04:24:27.665Z,7.28
2017-04-25T04:25:42.130Z,7.23
2017-04-25T04:26:56.189Z,7.31
2017-04-25T04:28:10.631Z,7.23
2017-04-25T04:29:25.165Z,7.25
2017-04-25T04:30:39.574Z,7.4
2017-04-25T04:31:54.086Z,7.31
2017-04-25T04:33:08.535Z,7.41
2017-04-25T04:34:23.075Z,7.44
2017-04-25T04:35:37.044Z,7.5
2017-04-25T04:36:52.477Z,7.51
2017-04-25T04:38:06.926Z,7.62
2017-04-25T04:39:22.094Z,7.61
2017-04-25T04:40:36.784Z,7.83
2017-04-25T04:41:50.978Z,7.83
2017-04-25T04:43:04.886Z,7.93
2017-04-25T04:44:19.895Z,8.01
2017-04-25T04:45:36.455Z,8.21
2017-04-25T04:46:54.097Z,8.24
2017-04-25T04:48:21.052Z,8.44
2017-04-25T04:49:36.643Z,8.45
2017-04-25T04:50:51.557Z,8.77
2017-04-25T04:52:06.236Z,9.03
2017-04-25T04:53:21.589Z,9.03
2017-04-25T04:54:35.745Z,9.18
2017-04-25T04:55:49.760Z,9.18
2017-04-25T04:57:04.523Z,9.16
2017-04-25T04:58:20.122Z,9.16
2017-04-25T04:59:34.970Z,9.16
2017-04-25T05:00:49.230Z,9.39
2017-04-25T05:02:03.728Z,9.3
2017-04-25T05:03:18.317Z,9.08
2017-04-25T05:04:32.517Z,9.05
2017-04-25T05:05:46.902Z,9.03
2017-04-25T05:07:01.520Z,9.03
2017-04-25T05:08:16.337Z,8.9
2017-04-25T05:09:31.340Z,8.82
2017-04-25T05:10:46.126Z,8.86
2017-04-25T05:12:00.349Z,8.87
2017-04-25T05:13:14.727Z,8.97
2017-04-25T05:14:29.045Z,8.93
2017-04-25T05:15:44.672Z,9
2017-04-25T05:16:59.555Z,9.26
2017-04-25T05:18:15.287Z,9.33
2017-04-25T05:19:40.182Z,9.45
2017-04-25T05:20:55.181Z,9.51
2017-04-25T05:22:10.013Z,9.67
2017-04-25T05:23:54.659Z,9.88
2017-04-25T05:25:09.323Z,9.94
2017-04-25T05:26:23.299Z,10.12
2017-04-25T05:27:38.021Z,10.2
2017-04-25T05:28:52.751Z,10.24
2017-04-25T05:30:26.369Z,10.2
2017-04-25T05:31:40.939Z,9.99
2017-04-25T05:32:55.568Z,10.05
2017-04-25T05:34:09.788Z,9.91
2017-04-25T05:35:24.942Z,9.82
2017-04-25T05:36:40.295Z,9.81
2017-04-25T05:37:55.354Z,9.87
2017-04-25T05:39:09.945Z,9.85
2017-04-25T05:40:23.962Z,9.76
2017-04-25T05:41:38.172Z,9.67
2017-04-25T05:42:52.789Z,9.7
2017-04-25T05:44:07.037Z,9.56
2017-04-25T05:45:21.319Z,9.49
2017-04-25T05:46:36.101Z,9.45
2017-04-25T05:47:50.730Z,9.56
2017-04-25T05:49:06.114Z,9.48
2017-04-25T05:50:20.428Z,9.48
2017-04-25T05:51:34.923Z,9.45
2017-04-25T05:52:49.579Z,9.52
2017-04-25T05:54:04.528Z,9.48
2017-04-25T05:55:19.442Z,9.51
2017-04-25T05:56:33.907Z,9.64
2017-04-25T05:57:48.630Z,9.82
2017-04-25T05:59:03.214Z,9.88
2017-04-25T06:00:17.568Z,9.99
2017-04-25T06:01:32.328Z,10.13
2017-04-25T06:02:48.027Z,10.1
2017-04-25T06:04:03.160Z,10.2
2017-04-25T06:05:17.522Z,10.36
2017-04-25T06:06:32.362Z,10.67
2017-04-25T06:07:46.991Z,10.89
2017-04-25T06:09:02.563Z,11
2017-04-25T06:11:30.065Z,11.12
2017-04-25T06:12:44.782Z,11.23
2017-04-25T06:13:59.212Z,11.37
2017-04-25T06:15:14.298Z,11.26
2017-04-25T06:16:28.994Z,11.44
2017-04-25T06:17:44.544Z,11.58
2017-04-25T06:18:59.045Z,11.55
2017-04-25T06:20:14.448Z,11.62
2017-04-25T06:21:28.881Z,11.76
2017-04-25T06:22:43.198Z,11.89
2017-04-25T06:23:58.207Z,12
2017-04-25T06:25:12.635Z,12.02
2017-04-25T06:26:26.706Z,11.86
2017-04-25T06:27:41.069Z,11.83
2017-04-25T06:28:55.521Z,11.67
2017-04-25T06:30:09.880Z,11.71
2017-04-25T06:31:24.497Z,11.6
2017-04-25T06:32:38.473Z,11.59
2017-04-25T06:33:53.380Z,11.63
2017-04-25T06:35:08.692Z,11.63
2017-04-25T06:36:24.125Z,11.53
2017-04-25T06:37:38.424Z,11.53
2017-04-25T06:38:53.236Z,11.48
2017-04-25T06:40:08.416Z,11.49
2017-04-25T06:41:23.127Z,11.49
2017-04-25T06:42:39.109Z,11.31
2017-04-25T06:43:54.266Z,11.3
2017-04-25T06:45:16.155Z,11.15
2017-04-25T06:46:30.938Z,11.02
2017-04-25T06:47:45.293Z,11.02
2017-04-25T06:49:00.371Z,11.02
2017-04-25T06:50:15.079Z,10.94
2017-04-25T06:51:29.940Z,10.94
2017-04-25T06:52:45.027Z,10.84
2017-04-25T06:53:59.514Z,10.86
2017-04-25T06:55:13.873Z,10.71
2017-04-25T06:56:28.752Z,10.75
2017-04-25T06:57:43.472Z,10.65
2017-04-25T06:58:57.949Z,10.58
2017-04-25T07:00:12.276Z,10.53
2017-04-25T07:01:27.270Z,10.42
2017-04-25T07:02:41.290Z,10.42
2017-04-25T07:03:56.512Z,10.43
2017-04-25T07:05:17.440Z,10.39
2017-04-25T07:06:31.985Z,10.36
2017-04-25T07:07:46.572Z,10.28
2017-04-25T07:09:01.682Z,10.21
2017-04-25T07:10:17.714Z,10.21
2017-04-25T07:11:32.220Z,10.34
2017-04-25T07:12:46.298Z,10.41
2017-04-25T07:14:01.102Z,10.36
2017-04-25T07:15:15.869Z,10.39
2017-04-25T07:16:30.235Z,10.38
2017-04-25T07:17:44.872Z,10.39
2017-04-25T07:18:58.992Z,10.27
2017-04-25T07:20:13.276Z,10.2
2017-04-25T07:21:27.782Z,10.2
2017-04-25T07:22:42.629Z,10.3
2017-04-25T07:23:56.774Z,10.21
2017-04-25T07:25:11.547Z,10.25
2017-04-25T07:26:25.766Z,10.23
2017-04-25T07:27:39.710Z,10.03
2017-04-25T07:28:54.417Z,9.95
2017-04-25T07:30:08.378Z,9.84
2017-04-25T07:31:22.599Z,9.85
2017-04-25T07:32:37.474Z,9.8
2017-04-25T07:33:52.295Z,9.88
2017-04-25T07:35:07.131Z,9.88
2017-04-25T07:36:21.800Z,9.9
2017-04-25T07:37:36.697Z,9.92
2017-04-25T07:38:51.107Z,9.85
2017-04-25T07:40:05.810Z,9.77
2017-04-25T07:41:21.051Z,9.66
2017-04-25T07:42:35.975Z,9.74
2017-04-25T07:43:50.666Z,9.76
2017-04-25T07:45:05.536Z,9.67
2017-04-25T07:46:20.504Z,9.58
2017-04-25T07:47:35.597Z,9.48
2017-04-25T07:48:49.902Z,9.52
2017-04-25T07:50:04.418Z,9.37
2017-04-25T07:51:19.490Z,9.58
2017-04-25T07:52:34.024Z,9.51
2017-04-25T07:53:49.148Z,9.51
2017-04-25T07:55:04.006Z,9.69
2017-04-25T07:56:18.552Z,9.69
2017-04-25T07:57:33.554Z,9.7
2017-04-25T07:58:48.404Z,9.76
2017-04-25T08:00:02.952Z,9.69
2017-04-25T08:01:17.188Z,9.52
2017-04-25T08:02:32.123Z,9.52
2017-04-25T08:03:46.686Z,9.55
2017-04-25T08:05:01.051Z,9.45
2017-04-25T08:06:15.697Z,9.55
2017-04-25T08:07:29.949Z,9.49
2017-04-25T08:08:45.021Z,9.29
2017-04-25T08:09:59.875Z,9.37
2017-04-25T08:11:14.754Z,9.33
2017-04-25T08:12:29.325Z,9.4
2017-04-25T08:13:43.713Z,9.36
2017-04-25T08:14:57.838Z,9.51
2017-04-25T08:16:12.883Z,9.51
2017-04-25T08:17:28.827Z,9.44
2017-04-25T08:18:43.456Z,9.56
2017-04-25T08:19:57.793Z,9.63
2017-04-25T08:21:13.749Z,9.56
2017-04-25T08:22:28.445Z,9.62
2017-04-25T08:23:43.810Z,9.47
2017-04-25T08:24:58.479Z,9.47
2017-04-25T08:26:12.963Z,9.45
2017-04-25T08:27:27.789Z,9.48
2017-04-25T08:28:43.135Z,9.44
2017-04-25T08:29:57.600Z,9.49
2017-04-25T08:31:12.218Z,9.44
2017-04-25T08:32:26.909Z,9.37
2017-04-25T08:33:41.817Z,9.29
2017-04-25T08:34:56.303Z,9.22
2017-04-25T08:36:10.557Z,9.19
2017-04-25T08:37:25.132Z,9.16
2017-04-25T08:38:40.031Z,9.15
2017-04-25T08:39:55.261Z,9
2017-04-25T08:41:12.464Z,9.12
2017-04-25T08:42:27.412Z,9.05
2017-04-25T08:43:42.021Z,9.09
2017-04-25T08:44:56.888Z,9.18
2017-04-25T08:46:11.903Z,9.26
2017-04-25T08:47:26.777Z,9.21
2017-04-25T08:48:41.836Z,9.3
2017-04-25T08:49:56.235Z,9.3
2017-04-25T08:51:10.594Z,9.36
2017-04-25T08:52:24.768Z,9.33
2017-04-25T08:53:39.699Z,9.36
2017-04-25T08:54:54.094Z,9.42
2017-04-25T08:56:09.497Z,9.47
2017-04-25T08:57:25.038Z,9.56
2017-04-25T08:58:40.791Z,9.54
2017-04-25T08:59:55.754Z,9.39
2017-04-25T09:01:10.776Z,9.37
2017-04-25T09:02:25.559Z,9.34
2017-04-25T09:03:39.938Z,9.44
2017-04-25T09:04:54.295Z,9.42
2017-04-25T09:06:09.034Z,9.48
2017-04-25T09:07:23.397Z,9.54
2017-04-25T09:08:38.480Z,9.69
2017-04-25T09:09:53.384Z,9.63
2017-04-25T09:11:09.141Z,9.67
2017-04-25T09:12:23.231Z,9.66
2017-04-25T09:13:38.775Z,9.59
2017-04-25T09:14:53.405Z,9.7
2017-04-25T09:16:08.162Z,9.7
2017-04-25T09:17:22.423Z,9.76
2017-04-25T09:18:37.318Z,9.81
2017-04-25T09:19:51.713Z,9.8
2017-04-25T09:21:06.453Z,9.8
2017-04-25T09:22:20.985Z,9.87
2017-04-25T09:23:35.120Z,9.87
2017-04-25T09:24:49.682Z,10.05
2017-04-25T09:26:03.842Z,10.07
2017-04-25T09:27:19.088Z,10.09
2017-04-25T09:28:34.631Z,10.18
2017-04-25T09:29:49.348Z,10.36
2017-04-25T09:31:05.213Z,10.28
2017-04-25T09:32:20.472Z,10.25
2017-04-25T09:33:35.046Z,10.21
2017-04-25T09:34:49.724Z,10.33
2017-04-25T09:36:04.205Z,10.41
2017-04-25T09:37:18.709Z,10.48
2017-04-25T09:38:33.941Z,10.61
2017-04-25T09:39:48.372Z,10.62
2017-04-25T09:41:03.411Z,10.65
2017-04-25T09:42:17.967Z,10.59
2017-04-25T09:43:33.066Z,10.65
2017-04-25T09:44:48.334Z,10.71
2017-04-25T09:46:03.226Z,10.71
2017-04-25T09:47:17.262Z,10.71
2017-04-25T09:48:31.591Z,10.69
2017-04-25T09:49:46.521Z,10.71
2017-04-25T09:51:01.744Z,10.84
2017-04-25T09:52:16.039Z,10.89
2017-04-25T09:53:31.111Z,10.87
2017-04-25T09:54:45.970Z,11
2017-04-25T09:56:00.768Z,10.87
2017-04-25T09:57:15.611Z,10.92
2017-04-25T09:58:31.201Z,10.76
2017-04-25T09:59:46.349Z,10.75
2017-04-25T10:01:00.989Z,10.94
2017-04-25T10:02:15.441Z,11.07
2017-04-25T10:03:30.389Z,11.04
2017-04-25T10:04:45.007Z,11.07
2017-04-25T10:05:59.247Z,11
2017-04-25T10:07:13.971Z,11.02
2017-04-25T10:08:28.945Z,10.94
2017-04-25T10:09:43.567Z,10.89
2017-04-25T10:10:58.619Z,10.98
2017-04-25T10:12:13.191Z,11.12
2017-04-25T10:13:27.908Z,11.23
2017-04-25T10:14:42.811Z,11.23
2017-04-25T10:15:58.231Z,11.27
2017-04-25T10:17:13.410Z,11.35
2017-04-25T10:18:28.415Z,11.35
2017-04-25T10:19:42.435Z,11.31
2017-04-25T10:20:57.688Z,11.38
2017-04-25T10:22:12.529Z,11.49
2017-04-25T10:23:27.200Z,11.63
2017-04-25T10:24:41.788Z,11.68
2017-04-25T10:25:57.058Z,11.71
2017-04-25T10:27:12.286Z,11.81
2017-04-25T10:28:37.422Z,11.96
2017-04-25T10:29:52.858Z,12.12
2017-04-25T10:31:06.995Z,12.28
2017-04-25T10:32:22.204Z,12.23
2017-04-25T10:33:37.895Z,12.07
2017-04-25T10:34:52.199Z,12.05
2017-04-25T10:36:06.397Z,12.02
2017-04-25T10:37:21.354Z,11.89
2017-04-25T10:38:36.757Z,11.74
2017-04-25T10:39:51.808Z,11.71
2017-04-25T10:41:07.344Z,11.89
2017-04-25T10:42:22.508Z,12.3
2017-04-25T10:43:37.150Z,12.32
2017-04-25T10:44:52.039Z,12.53
2017-04-25T10:46:07.858Z,12.66
2017-04-25T10:47:22.685Z,12.65
2017-04-25T10:48:37.660Z,12.15
2017-04-25T10:49:52.065Z,12.1
2017-04-25T10:51:07.202Z,11.67
2017-04-25T10:52:21.569Z,11.73
2017-04-25T10:53:35.945Z,11.95
2017-04-25T10:54:50.279Z,11.85
2017-04-25T10:56:04.797Z,12.02
2017-04-25T10:57:19.244Z,11.85
2017-04-25T10:58:34.236Z,11.89
2017-04-25T10:59:49.547Z,12.07
2017-04-25T11:01:05.001Z,12
2017-04-25T11:02:19.616Z,11.81
2017-04-25T11:03:34.574Z,11.86
2017-04-25T11:04:48.966Z,11.91
2017-04-25T11:06:04.027Z,11.8
2017-04-25T11:07:18.645Z,11.73
2017-04-25T11:08:33.643Z,11.7
2017-04-25T11:09:48.324Z,11.8
2017-04-25T11:11:03.228Z,12.12
2017-04-25T11:12:17.953Z,12.08
2017-04-25T11:13:33.326Z,12.23
2017-04-25T11:14:48.665Z,12.3
2017-04-25T11:16:03.141Z,12.44
2017-04-25T11:17:18.081Z,12.47
2017-04-25T11:18:33.970Z,12.57
2017-04-25T11:19:48.448Z,12.45
2017-04-25T11:21:03.231Z,12.53
2017-04-25T11:22:17.703Z,12.45
2017-04-25T11:23:32.649Z,12.78
2017-04-25T11:24:47.558Z,12.68
2017-04-25T11:26:01.776Z,12.69
2017-04-25T11:27:54.934Z,12.91
2017-04-25T11:29:10.893Z,13.03
2017-04-25T11:30:25.542Z,13.13
2017-04-25T11:31:41.279Z,13.37
2017-04-25T11:32:56.160Z,13.13
2017-04-25T11:34:11.100Z,13.03
2017-04-25T11:35:26.242Z,13.01
2017-04-25T11:36:41.617Z,12.94
2017-04-25T11:37:56.428Z,12.88
2017-04-25T11:39:10.649Z,12.9
2017-04-25T11:40:24.607Z,12.86
2017-04-25T11:41:39.486Z,12.98
2017-04-25T11:43:06.228Z,12.98
2017-04-25T11:44:21.635Z,13.02
2017-04-25T11:45:36.523Z,12.86
2017-04-25T11:46:51.571Z,12.81
2017-04-25T11:48:06.612Z,12.81
2017-04-25T11:49:22.010Z,12.73
2017-04-25T11:50:36.810Z,12.75
2017-04-25T11:51:51.949Z,12.66
2017-04-25T11:53:06.823Z,12.58
2017-04-25T11:54:22.830Z,12.3
2017-04-25T11:55:38.649Z,12.26
2017-04-25T11:56:55.558Z,12.26
2017-04-25T11:58:09.745Z,12.4
2017-04-25T11:59:25.333Z,12.3
2017-04-25T12:00:39.520Z,12.45
2017-04-25T12:01:54.760Z,12.45
2017-04-25T12:03:09.660Z,12.66
2017-04-25T12:04:24.399Z,12.78
2017-04-25T12:05:40.471Z,12.87
2017-04-25T12:06:54.942Z,12.78
2017-04-25T12:08:09.675Z,12.68
2017-04-25T12:09:25.001Z,12.69
2017-04-25T12:10:39.816Z,12.88
2017-04-25T12:11:59.220Z,13.01
2017-04-25T12:13:13.855Z,13.08
2017-04-25T12:14:28.591Z,13.13
2017-04-25T12:15:43.365Z,13.13
2017-04-25T12:16:58.843Z,13.16
2017-04-25T12:18:14.140Z,13.11
2017-04-25T12:19:29.915Z,13.23
2017-04-25T12:20:47.254Z,13.16
2017-04-25T12:22:01.465Z,13.19
2017-04-25T12:23:16.060Z,13.17
2017-04-25T12:24:31.491Z,13.06
2017-04-25T12:25:45.612Z,12.99
2017-04-25T12:27:00.867Z,12.88
2017-04-25T12:28:16.223Z,12.83
2017-04-25T12:29:31.006Z,12.75
2017-04-25T12:30:45.413Z,12.69
2017-04-25T12:32:00.391Z,12.63
2017-04-25T12:33:15.553Z,12.69
2017-04-25T12:34:30.435Z,12.72
2017-04-25T12:35:45.649Z,12.75
2017-04-25T12:37:00.199Z,12.9
2017-04-25T12:38:14.900Z,12.87
2017-04-25T12:39:30.698Z,12.91
2017-04-25T12:40:45.160Z,12.88
2017-04-25T12:42:00.753Z,12.93
2017-04-25T12:43:15.177Z,13.11
2017-04-25T12:44:29.804Z,13.13
2017-04-25T12:45:44.362Z,13.09
2017-04-25T12:46:59.684Z,13.2
2017-04-25T12:48:13.883Z,13.06
2017-04-25T12:49:28.600Z,12.98
2017-04-25T12:50:43.596Z,12.98
2017-04-25T12:51:58.903Z,13.02
2017-04-25T12:53:14.920Z,12.95
2017-04-25T12:54:30.176Z,12.78
2017-04-25T12:55:45.245Z,12.81
2017-04-25T12:57:00.922Z,12.68
2017-04-25T12:58:15.758Z,12.63
2017-04-25T12:59:56.313Z,12.81
2017-04-25T13:01:33.076Z,12.91
2017-04-25T13:02:48.912Z,12.91
2017-04-25T13:04:04.103Z,12.99
2017-04-25T13:05:19.206Z,13.08
2017-04-25T13:06:35.187Z,12.95
2017-04-25T13:07:50.636Z,13.08
2017-04-25T13:09:04.878Z,13.19
2017-04-25T13:10:33.796Z,13.27
2017-04-25T13:11:48.482Z,13.45
2017-04-25T13:13:21.022Z,13.5
2017-04-25T13:14:36.189Z,13.47
2017-04-25T13:15:51.468Z,13.39
2017-04-25T13:17:06.500Z,13.49
2017-04-25T13:18:20.939Z,13.47
2017-04-25T13:19:36.102Z,13.76
2017-04-25T13:20:51.001Z,13.78
2017-04-25T13:22:06.496Z,13.71
2017-04-25T13:23:21.451Z,13.89
2017-04-25T13:24:36.297Z,13.98
2017-04-25T13:25:51.818Z,14.11
2017-04-25T13:27:06.875Z,14.12
2017-04-25T13:28:21.991Z,13.97
2017-04-25T13:29:37.547Z,13.89
2017-04-25T13:30:52.175Z,14
2017-04-25T13:32:17.417Z,13.97
2017-04-25T13:33:31.695Z,14.05
2017-04-25T13:34:46.429Z,14.12
2017-04-25T13:36:02.348Z,14
2017-04-25T13:38:51.943Z,14.08
2017-04-25T13:40:07.829Z,13.78
2017-04-25T13:41:22.852Z,13.61
2017-04-25T13:42:38.655Z,13.6
2017-04-25T13:43:53.573Z,13.7
2017-04-25T13:45:09.132Z,13.68
2017-04-25T13:46:23.748Z,13.8
2017-04-25T13:47:39.507Z,14.11
2017-04-25T13:48:55.416Z,14.19
2017-04-25T13:50:10.863Z,14.03
2017-04-25T13:51:25.211Z,14.08
2017-04-25T13:52:42.280Z,14
2017-04-25T13:53:57.664Z,13.7
2017-04-25T13:55:14.914Z,14.04
2017-04-25T13:56:30.039Z,14.15
2017-04-25T13:57:44.884Z,14.07
2017-04-25T13:58:59.957Z,14.03
2017-04-25T14:00:14.973Z,13.73
2017-04-25T14:01:30.066Z,13.5
2017-04-25T14:02:44.621Z,13.54
2017-04-25T14:04:00.013Z,13.37
2017-04-25T14:05:15.047Z,13.33
2017-04-25T14:06:31.616Z,13.23
2017-04-25T14:07:47.796Z,13.37
2017-04-25T14:09:09.838Z,13.27
2017-04-25T14:10:23.921Z,13.37
2017-04-25T14:12:09.874Z,13.3
2017-04-25T14:13:26.061Z,13.21
2017-04-25T14:14:40.901Z,13.19
2017-04-25T14:15:55.810Z,13.27
2017-04-25T14:17:10.690Z,13.28
2017-04-25T14:18:25.281Z,13.19
2017-04-25T14:19:39.236Z,13.2
2017-04-25T14:20:54.557Z,13.23
2017-04-25T14:22:09.116Z,13.31
2017-04-25T14:23:24.405Z,13.33
2017-04-25T14:24:39.078Z,13.27
2017-04-25T14:25:53.542Z,13.21
2017-04-25T14:27:07.984Z,13.06
2017-04-25T14:28:24.722Z,13.21
2017-04-25T14:29:39.166Z,13.19
2017-04-25T14:30:53.905Z,13.2
2017-04-25T14:32:08.429Z,13.26
2017-04-25T14:33:22.980Z,13.19
2017-04-25T14:34:38.097Z,13.16
2017-04-25T14:35:53.125Z,13.21
2017-04-25T14:37:07.276Z,13.26
2017-04-25T14:38:22.393Z,13.23
2017-04-25T14:39:36.523Z,13.24
2017-04-25T14:40:51.177Z,13.23
2017-04-25T14:42:06.268Z,13.12
2017-04-25T14:43:21.061Z,13.12
2017-04-25T14:44:35.580Z,13.17
2017-04-25T14:45:50.171Z,13.12
2017-04-25T14:47:04.436Z,13.13
2017-04-25T14:48:19.020Z,13.01
2017-04-25T14:49:37.280Z,13.21
2017-04-25T14:50:56.979Z,13.19
2017-04-25T14:52:18.766Z,13.26
2017-04-25T14:53:34.149Z,13.27
2017-04-25T14:54:49.708Z,13.23
2017-04-25T14:56:05.175Z,13.3
2017-04-25T14:57:23.378Z,13.03
2017-04-25T14:58:39.668Z,13.2
2017-04-25T14:59:55.199Z,13.19
2017-04-25T15:01:11.348Z,13.11
2017-04-25T15:02:26.193Z,12.86
2017-04-25T15:03:43.428Z,12.68
2017-04-25T15:04:57.418Z,12.72
2017-04-25T15:06:13.107Z,12.75
2017-04-25T15:07:28.334Z,12.8
2017-04-25T15:08:43.678Z,12.83
2017-04-25T15:09:58.803Z,12.98
2017-04-25T15:11:14.165Z,13.19
2017-04-25T15:12:28.433Z,13.23
2017-04-25T15:13:43.711Z,13.54
2017-04-25T15:15:12.822Z,13.65
2017-04-25T15:16:28.650Z,13.78
2017-04-25T15:17:44.369Z,13.89
2017-04-25T15:18:59.975Z,14.07
2017-04-25T15:20:16.545Z,14.11
2017-04-25T15:21:31.905Z,14.03
2017-04-25T15:22:47.832Z,13.97
2017-04-25T15:24:02.588Z,13.89
2017-04-25T15:25:19.136Z,13.79
2017-04-25T15:26:35.540Z,13.68
2017-04-25T15:27:52.701Z,13.39
2017-04-25T15:29:09.159Z,13.33
2017-04-25T15:30:25.753Z,13.33
2017-04-25T15:31:40.167Z,13.3
2017-04-25T15:32:55.310Z,13.39
2017-04-25T15:34:11.818Z,13.21
2017-04-25T15:35:27.981Z,13.2
2017-04-25T15:36:44.410Z,13.24
2017-04-25T15:37:59.628Z,13.26
2017-04-25T15:39:16.396Z,13.24
2017-04-25T15:40:30.867Z,13.31
2017-04-25T15:41:46.417Z,13.23
2017-04-25T15:43:01.761Z,13.12
2017-04-25T15:44:17.658Z,12.99
2017-04-25T15:45:32.813Z,13.02
2017-04-25T15:46:47.742Z,12.95
2017-04-25T15:48:02.889Z,13.12
2017-04-25T15:49:18.389Z,13.21
2017-04-25T15:50:33.721Z,13.2
2017-04-25T15:51:50.832Z,13.24
2017-04-25T15:53:06.048Z,13.33
2017-04-25T15:54:21.883Z,13.33
2017-04-25T15:55:38.835Z,13.24
2017-04-25T15:56:54.724Z,13.2
2017-04-25T15:58:09.349Z,12.95
2017-04-25T15:59:24.544Z,12.83
2017-04-25T16:00:40.280Z,12.54
2017-04-25T16:02:40.441Z,12.55
2017-04-25T16:03:55.900Z,12.62
2017-04-25T16:05:10.748Z,12.7
2017-04-25T16:06:26.111Z,12.88
2017-04-25T16:07:41.594Z,13.05
2017-04-25T16:08:57.443Z,13.03
2017-04-25T16:10:12.267Z,13.11
2017-04-25T16:12:03.598Z,13.08
2017-04-25T16:13:18.554Z,12.99
2017-04-25T16:14:34.943Z,13.08
2017-04-25T16:15:50.746Z,13.05
2017-04-25T16:17:07.353Z,12.93
2017-04-25T16:18:23.740Z,12.88
2017-04-25T16:19:38.770Z,12.75
2017-04-25T16:20:54.218Z,12.75
2017-04-25T16:22:10.675Z,12.8
2017-04-25T16:23:25.849Z,12.69
2017-04-25T16:24:40.762Z,12.39
2017-04-25T16:25:56.747Z,12.36
2017-04-25T16:27:17.933Z,12.39
2017-04-25T16:28:33.771Z,12.36
2017-04-25T16:29:49.158Z,12.36
2017-04-25T16:31:06.406Z,12.51
2017-04-25T16:32:22.298Z,12.54
2017-04-25T16:33:37.631Z,12.45
2017-04-25T16:34:53.992Z,12.68